This is the latest recevied weather packets stored in our database for station/object KD4IZ-13. If no packets are shown the sender has not sent any weather packets the latest 1 day(s).
| Time | Temp. | Humidity | Pressure | Rain* | Wind** | Luminosity | Snow |
|---|---|---|---|---|---|---|---|
| 1778002537 | 26.11° C | 45% | 1012.2 hPa | 0 mm | 3.13 m/s, 241° | 694 W/m² | - |
| 1778002233 | 26.11° C | 45% | 1012.3 hPa | 0 mm | 5.36 m/s, 195° | 704 W/m² | - |
| 1778001931 | 26.11° C | 45% | 1012.2 hPa | 0 mm | 4.92 m/s, 225° | 693 W/m² | - |
| 1778001627 | 26.11° C | 46% | 1012.1 hPa | 0 mm | 4.02 m/s, 221° | 709 W/m² | - |
| 1778001322 | 25.56° C | 47% | 1012.4 hPa | 0 mm | 3.58 m/s, 256° | 702 W/m² | - |
| 1778001020 | 25.56° C | 45% | 1012.4 hPa | 0 mm | 5.36 m/s, 225° | 710 W/m² | - |
| 1778000716 | 25.56° C | 49% | 1012.5 hPa | 0 mm | 1.79 m/s, 247° | 701 W/m² | - |
| 1778000413 | 25.56° C | 48% | 1012.6 hPa | 0 mm | 3.58 m/s, 155° | 705 W/m² | - |
| 1778000108 | 25.56° C | 51% | 1012.7 hPa | 0 mm | 2.24 m/s, 326° | 711 W/m² | - |
| 1777999804 | 25.56° C | 47% | 1012.6 hPa | 0 mm | 4.02 m/s, 217° | 714 W/m² | - |
| 1777999500 | 26.11° C | 48% | 1012.8 hPa | 0 mm | 2.24 m/s, 282° | 727 W/m² | - |
| 1777999198 | 25.56° C | 47% | 1012.8 hPa | 0 mm | 4.47 m/s, 270° | 718 W/m² | - |
| 1777998897 | 25.56° C | 47% | 1013 hPa | 0 mm | 2.68 m/s, 187° | 712 W/m² | - |
| 1777998596 | 25° C | 49% | 1012.8 hPa | 0 mm | 5.36 m/s, 264° | 711 W/m² | - |
| 1777998291 | 25.56° C | 47% | 1013.1 hPa | 0 mm | 4.02 m/s, 227° | 735 W/m² | - |
| 1777997988 | 25.56° C | 47% | 1012.8 hPa | 0 mm | 2.68 m/s, 244° | 735 W/m² | - |
| 1777997684 | 25° C | 50% | 1012.8 hPa | 0 mm | 3.13 m/s, 245° | 727 W/m² | - |
| 1777997382 | 25° C | 48% | 1012.8 hPa | 0 mm | 4.02 m/s, 198° | 712 W/m² | - |
| 1777997080 | 25° C | 49% | 1013.1 hPa | 0 mm | 3.58 m/s, 240° | 707 W/m² | - |
| 1777996776 | 25° C | 49% | 1012.9 hPa | 0 mm | 2.24 m/s, 241° | 725 W/m² | - |
| 1777996473 | 25° C | 50% | 1013 hPa | 0 mm | 4.02 m/s, 202° | 735 W/m² | - |
| 1777996169 | 25° C | 50% | 1013.2 hPa | 0 mm | 3.58 m/s, 240° | 733 W/m² | - |
| 1777995860 | 25° C | 49% | 1012.8 hPa | 0 mm | 4.02 m/s, 195° | 727 W/m² | - |
| 1777995556 | 25° C | 48% | 1013.1 hPa | 0 mm | 3.13 m/s, 228° | 711 W/m² | - |
| 1777995254 | 25° C | 50% | 1013 hPa | 0 mm | 4.02 m/s, 254° | 745 W/m² | - |
* Rain latest hour (hover to see other rain measurements)
** Current wind speed in m/s (hover to see current wind gust speed)